createdAt,value
2023-05-05T00:00:15.561Z,11.40
2023-05-05T00:02:43.080Z,15.55
2023-05-05T00:05:10.813Z,13.18
2023-05-05T00:07:37.637Z,12.75
2023-05-05T00:10:05.322Z,15.73
2023-05-05T00:12:32.809Z,12.88
2023-05-05T00:14:59.972Z,12.68
2023-05-05T00:17:27.192Z,12.07
2023-05-05T00:19:54.400Z,12.02
2023-05-05T00:22:21.536Z,11.80
2023-05-05T00:24:48.734Z,13.65
2023-05-05T00:27:16.006Z,11.57
2023-05-05T00:29:43.137Z,12.45
2023-05-05T00:32:10.302Z,11.68
2023-05-05T00:34:37.430Z,13.57
2023-05-05T00:37:04.807Z,12.32
2023-05-05T00:39:33.285Z,13.98
2023-05-05T00:42:00.297Z,10.27
2023-05-05T00:44:41.646Z,13.27
2023-05-05T00:47:09.629Z,12.07
2023-05-05T00:49:37.954Z,13.43
2023-05-05T00:52:07.384Z,12.90
2023-05-05T00:54:35.519Z,16.20
2023-05-05T00:57:03.133Z,16.00
2023-05-05T00:59:34.881Z,16.25
2023-05-05T01:02:02.128Z,16.73
2023-05-05T01:04:29.604Z,17.38
2023-05-05T01:07:15.683Z,18.80
2023-05-05T01:09:43.960Z,17.40
2023-05-05T01:12:23.306Z,19.17
2023-05-05T01:14:54.279Z,22.30
2023-05-05T01:17:25.164Z,20.00
2023-05-05T01:20:11.181Z,20.08
2023-05-05T01:22:51.813Z,18.83
2023-05-05T01:25:22.027Z,20.35
2023-05-05T01:28:28.791Z,18.77
2023-05-05T01:31:23.353Z,19.42
2023-05-05T01:33:58.184Z,18.63
2023-05-05T01:36:32.785Z,19.05
2023-05-05T01:39:02.867Z,19.55
2023-05-05T01:41:39.738Z,17.23
2023-05-05T01:44:09.671Z,18.40
2023-05-05T01:46:37.336Z,18.85
2023-05-05T01:49:05.831Z,19.38
2023-05-05T01:51:34.100Z,17.20
2023-05-05T01:54:08.261Z,17.17
2023-05-05T01:56:38.984Z,17.33
2023-05-05T01:59:07.130Z,18.70
2023-05-05T02:01:37.777Z,17.05
2023-05-05T02:04:06.263Z,18.73
2023-05-05T02:06:34.639Z,17.27
2023-05-05T02:09:03.344Z,19.35
2023-05-05T02:11:30.839Z,17.83
2023-05-05T02:13:59.162Z,18.75
2023-05-05T02:16:31.593Z,18.88
2023-05-05T02:19:02.926Z,17.95
2023-05-05T02:21:30.073Z,18.13
2023-05-05T02:23:57.223Z,16.13
2023-05-05T02:26:24.907Z,15.82
2023-05-05T02:29:10.747Z,16.17
2023-05-05T02:31:51.125Z,20.05
2023-05-05T02:34:27.510Z,18.20
2023-05-05T02:36:58.340Z,15.05
2023-05-05T02:39:43.684Z,18.35
2023-05-05T02:42:18.305Z,14.38
2023-05-05T02:44:46.201Z,15.48
2023-05-05T02:47:14.147Z,18.25
2023-05-05T02:49:41.522Z,17.90
2023-05-05T02:52:09.395Z,15.02
2023-05-05T02:54:38.137Z,13.18
2023-05-05T02:57:16.615Z,14.48
2023-05-05T02:59:57.440Z,13.63
2023-05-05T03:02:42.009Z,12.77
2023-05-05T03:05:23.110Z,15.85
2023-05-05T03:07:55.819Z,12.88
2023-05-05T03:10:30.521Z,14.02
2023-05-05T03:13:02.714Z,12.38
2023-05-05T03:16:00.751Z,14.77
2023-05-05T03:18:29.473Z,12.60
2023-05-05T03:21:17.888Z,11.77
2023-05-05T03:23:45.909Z,14.07
2023-05-05T03:26:19.553Z,11.52
2023-05-05T03:28:47.631Z,14.48
2023-05-05T03:31:22.205Z,14.35
2023-05-05T03:33:54.015Z,12.23
2023-05-05T03:36:25.394Z,13.68
2023-05-05T03:38:54.264Z,13.43
2023-05-05T03:41:23.557Z,11.25
2023-05-05T03:43:52.023Z,12.43
2023-05-05T03:46:19.899Z,12.10
2023-05-05T03:48:47.233Z,12.65
2023-05-05T03:51:14.327Z,13.45
2023-05-05T03:53:42.632Z,13.27
2023-05-05T03:56:11.117Z,12.63
2023-05-05T03:58:38.291Z,12.85
2023-05-05T04:01:05.606Z,12.82
2023-05-05T04:03:32.816Z,12.80
2023-05-05T04:06:01.333Z,12.93
2023-05-05T04:08:30.560Z,11.38
2023-05-05T04:13:31.064Z,13.65
2023-05-05T04:15:59.811Z,11.00
2023-05-05T04:18:27.305Z,11.82
2023-05-05T04:20:54.432Z,12.35
2023-05-05T04:23:22.507Z,13.80
2023-05-05T04:25:50.504Z,10.75
2023-05-05T04:28:20.326Z,10.68
2023-05-05T04:30:48.957Z,13.60
2023-05-05T04:33:16.286Z,12.32
2023-05-05T04:35:43.662Z,11.13
2023-05-05T04:38:11.203Z,13.73
2023-05-05T04:40:41.896Z,13.10
2023-05-05T04:43:10.589Z,11.68
2023-05-05T04:45:37.937Z,11.52
2023-05-05T04:48:06.064Z,11.43
2023-05-05T04:50:33.704Z,10.65
2023-05-05T04:53:00.979Z,11.18
2023-05-05T04:55:28.728Z,13.35
2023-05-05T04:57:55.925Z,13.27
2023-05-05T05:00:24.263Z,13.15
2023-05-05T05:02:53.193Z,14.75
2023-05-05T05:05:21.606Z,15.07
2023-05-05T05:07:48.810Z,13.00
2023-05-05T05:10:16.252Z,14.40
2023-05-05T05:12:43.626Z,14.60
2023-05-05T05:15:12.992Z,14.50
2023-05-05T05:17:41.146Z,15.25
2023-05-05T05:20:09.170Z,14.60
2023-05-05T05:22:38.786Z,12.48
2023-05-05T05:25:08.825Z,15.30
2023-05-05T05:27:36.111Z,16.67
2023-05-05T05:30:03.897Z,15.82
2023-05-05T05:32:32.707Z,16.25
2023-05-05T05:34:59.689Z,16.52
2023-05-05T05:37:31.054Z,18.13
2023-05-05T05:39:59.062Z,22.48
2023-05-05T05:42:28.183Z,17.92
2023-05-05T05:44:55.713Z,18.90
2023-05-05T05:47:23.769Z,18.95
2023-05-05T05:49:51.134Z,24.08
2023-05-05T05:52:20.156Z,20.05
2023-05-05T05:54:47.286Z,18.02
2023-05-05T05:57:14.452Z,17.92
2023-05-05T05:59:41.893Z,18.35
2023-05-05T06:02:09.823Z,15.48
2023-05-05T06:04:37.325Z,19.95
2023-05-05T06:07:04.883Z,19.75
2023-05-05T06:09:32.072Z,19.48
2023-05-05T06:11:59.524Z,18.30
2023-05-05T06:14:26.947Z,16.52
2023-05-05T06:16:55.090Z,17.02
2023-05-05T06:19:23.981Z,18.42
2023-05-05T06:21:51.375Z,17.98
2023-05-05T06:24:18.460Z,20.05
2023-05-05T06:26:45.752Z,15.70
2023-05-05T06:29:12.856Z,13.98
2023-05-05T06:31:39.587Z,16.00
2023-05-05T06:34:07.102Z,17.02
2023-05-05T06:36:34.248Z,17.05
2023-05-05T06:39:01.388Z,16.25
2023-05-05T06:41:28.662Z,14.88
2023-05-05T06:43:55.866Z,15.35
2023-05-05T06:46:23.092Z,14.70
2023-05-05T06:48:50.323Z,15.27
2023-05-05T06:51:17.087Z,13.60
2023-05-05T06:53:43.766Z,16.20
2023-05-05T06:56:11.505Z,15.02
2023-05-05T06:58:38.736Z,12.38
2023-05-05T07:01:05.864Z,12.77
2023-05-05T07:03:32.690Z,14.63
2023-05-05T07:05:59.674Z,14.02
2023-05-05T07:08:26.863Z,12.68
2023-05-05T07:10:54.112Z,13.02
2023-05-05T07:13:21.409Z,11.35
2023-05-05T07:15:48.251Z,12.23
2023-05-05T07:18:16.406Z,11.30
2023-05-05T07:20:44.580Z,11.27
2023-05-05T07:23:11.801Z,12.05
2023-05-05T07:25:39.397Z,10.52
2023-05-05T07:28:06.625Z,11.25
2023-05-05T07:30:33.385Z,12.38
2023-05-05T07:33:00.425Z,12.88
2023-05-05T07:35:27.820Z,10.98
2023-05-05T07:37:54.930Z,10.80
2023-05-05T07:40:22.210Z,11.60
2023-05-05T07:42:49.336Z,11.48
2023-05-05T07:45:16.109Z,10.55
2023-05-05T07:47:43.288Z,9.65
2023-05-05T07:50:10.672Z,11.13
2023-05-05T07:52:48.434Z,8.73
2023-05-05T07:55:24.080Z,12.18
2023-05-05T07:57:50.852Z,10.68
2023-05-05T08:00:19.518Z,9.93
2023-05-05T08:02:47.953Z,11.25
2023-05-05T08:05:15.597Z,9.10
2023-05-05T08:07:42.685Z,9.25
2023-05-05T08:10:11.910Z,12.52
2023-05-05T08:12:39.430Z,8.50
2023-05-05T08:15:06.880Z,7.40
2023-05-05T08:17:47.534Z,8.18
2023-05-05T08:20:17.716Z,7.82
2023-05-05T08:22:45.016Z,8.65
2023-05-05T08:25:13.066Z,9.15
2023-05-05T08:27:40.969Z,6.93
2023-05-05T08:30:08.704Z,10.20
2023-05-05T08:32:35.892Z,7.97
2023-05-05T08:35:04.674Z,8.70
2023-05-05T08:37:31.598Z,8.68
2023-05-05T08:39:58.562Z,7.03
2023-05-05T08:42:36.125Z,7.72
2023-05-05T08:45:04.993Z,7.68
2023-05-05T08:47:32.373Z,8.50
2023-05-05T08:50:00.170Z,8.32
2023-05-05T08:52:29.506Z,8.00
2023-05-05T08:57:40.864Z,6.72
2023-05-05T09:00:09.889Z,8.32
2023-05-05T09:02:37.235Z,7.07
2023-05-05T09:05:06.443Z,7.32
2023-05-05T09:07:34.896Z,8.20
2023-05-05T09:10:04.766Z,6.95
2023-05-05T09:12:32.176Z,9.20
2023-05-05T09:14:59.473Z,9.73
2023-05-05T09:17:26.720Z,10.05
2023-05-05T09:20:07.300Z,10.20
2023-05-05T09:22:34.570Z,8.90
2023-05-05T09:25:01.969Z,9.02
2023-05-05T09:27:29.400Z,9.23
2023-05-05T09:29:57.322Z,9.15
2023-05-05T09:32:26.130Z,8.63
2023-05-05T09:37:30.923Z,8.70
2023-05-05T09:40:00.916Z,10.65
2023-05-05T09:42:28.201Z,10.98
2023-05-05T09:44:55.695Z,8.55
2023-05-05T09:47:47.754Z,9.45
2023-05-05T09:50:19.000Z,6.25
2023-05-05T09:53:01.808Z,7.85
2023-05-05T09:55:31.133Z,7.85
2023-05-05T09:58:16.859Z,10.10
2023-05-05T10:00:44.310Z,13.07
2023-05-05T10:03:11.641Z,10.18
2023-05-05T10:05:53.013Z,16.48
2023-05-05T10:08:24.864Z,11.43
2023-05-05T10:11:00.463Z,13.82
2023-05-05T10:13:28.018Z,14.23
2023-05-05T10:15:57.321Z,10.80
2023-05-05T10:18:28.526Z,10.20
2023-05-05T10:20:59.900Z,10.50
2023-05-05T10:23:48.793Z,7.78
2023-05-05T10:26:16.897Z,8.73
2023-05-05T10:28:49.943Z,10.27
2023-05-05T10:31:36.126Z,10.15
2023-05-05T10:34:05.952Z,7.93
2023-05-05T10:39:01.002Z,8.32
2023-05-05T10:41:30.728Z,9.23
2023-05-05T10:43:59.637Z,9.13
2023-05-05T10:46:30.249Z,5.50
2023-05-05T10:49:15.741Z,8.85
2023-05-05T10:52:00.241Z,8.23
2023-05-05T10:54:42.152Z,6.43
2023-05-05T10:57:10.835Z,7.43
2023-05-05T10:59:38.385Z,8.65
2023-05-05T11:02:25.193Z,7.35
2023-05-05T11:05:14.931Z,7.70
2023-05-05T11:07:42.807Z,8.10
2023-05-05T11:10:20.674Z,5.90
2023-05-05T11:13:02.954Z,8.27
2023-05-05T11:15:30.564Z,8.30
2023-05-05T11:18:05.885Z,9.52
2023-05-05T11:20:40.013Z,10.02
2023-05-05T11:23:07.377Z,9.90
2023-05-05T11:25:38.986Z,6.57
2023-05-05T11:28:14.818Z,10.00
2023-05-05T11:30:58.130Z,11.10
2023-05-05T11:33:37.107Z,7.18
2023-05-05T11:36:12.224Z,9.98
2023-05-05T11:38:53.025Z,9.45
2023-05-05T11:41:33.699Z,11.20
2023-05-05T11:44:10.960Z,11.13
2023-05-05T11:46:59.479Z,9.57
2023-05-05T11:49:46.828Z,11.30
2023-05-05T11:52:15.097Z,11.88
2023-05-05T11:54:50.142Z,12.02
2023-05-05T11:57:22.074Z,10.27
2023-05-05T11:59:58.104Z,12.15
2023-05-05T12:02:26.571Z,10.82
2023-05-05T12:04:54.144Z,14.23
2023-05-05T12:07:23.309Z,12.15
2023-05-05T12:09:50.605Z,9.82
2023-05-05T12:12:18.268Z,9.13
2023-05-05T12:14:52.858Z,11.48
2023-05-05T12:17:21.505Z,10.00
2023-05-05T12:19:55.596Z,11.50
2023-05-05T12:22:27.170Z,8.55
2023-05-05T12:24:55.314Z,11.23
2023-05-05T12:27:22.849Z,9.80
2023-05-05T12:29:50.095Z,10.77
2023-05-05T12:32:35.969Z,9.52
2023-05-05T12:35:03.541Z,8.40
2023-05-05T12:37:34.294Z,10.65
2023-05-05T12:40:02.921Z,10.95
2023-05-05T12:42:34.435Z,10.45
2023-05-05T12:45:01.868Z,10.77
2023-05-05T12:47:32.775Z,10.50
2023-05-05T12:50:00.414Z,9.93
2023-05-05T12:52:41.011Z,11.45
2023-05-05T12:55:08.726Z,11.13
2023-05-05T12:57:36.514Z,10.68
2023-05-05T13:00:14.265Z,13.80
2023-05-05T13:02:41.792Z,12.35
2023-05-05T13:05:09.059Z,12.93
2023-05-05T13:07:36.609Z,15.15
2023-05-05T13:10:09.504Z,12.15
2023-05-05T13:12:36.680Z,13.10
2023-05-05T13:15:04.067Z,16.33
2023-05-05T13:17:34.097Z,15.32
2023-05-05T13:20:01.897Z,10.60
2023-05-05T13:22:29.029Z,14.52
2023-05-05T13:24:56.178Z,15.60
2023-05-05T13:27:23.579Z,15.65
2023-05-05T13:29:50.949Z,14.20
2023-05-05T13:32:18.103Z,14.52
2023-05-05T13:34:47.110Z,14.15
2023-05-05T13:37:14.499Z,17.75
2023-05-05T13:43:08.676Z,11.55
2023-05-05T13:46:18.727Z,11.13
2023-05-05T13:54:46.679Z,8.52
2023-05-05T13:57:14.166Z,9.95
2023-05-05T13:59:44.961Z,9.00
2023-05-05T14:02:14.676Z,10.07
2023-05-05T14:04:45.159Z,7.90
2023-05-05T14:07:20.887Z,9.60
2023-05-05T14:10:14.988Z,6.15
2023-05-05T14:12:47.187Z,6.47
2023-05-05T14:15:14.743Z,6.97
2023-05-05T14:17:52.235Z,7.32
2023-05-05T14:20:21.966Z,5.00
2023-05-05T14:22:49.489Z,6.40
2023-05-05T14:25:16.859Z,8.07
2023-05-05T14:27:44.478Z,5.40
2023-05-05T14:30:11.929Z,5.88
2023-05-05T14:32:39.127Z,4.93
2023-05-05T14:35:06.783Z,6.03
2023-05-05T14:37:34.394Z,6.72
2023-05-05T14:40:02.526Z,6.05
2023-05-05T14:42:31.563Z,6.63
2023-05-05T14:44:58.853Z,5.88
2023-05-05T14:47:26.582Z,6.05
2023-05-05T14:49:53.678Z,3.70
2023-05-05T14:52:20.822Z,7.00
2023-05-05T14:54:47.898Z,7.32
2023-05-05T14:57:14.977Z,5.05
2023-05-05T14:59:43.738Z,8.82
2023-05-05T15:02:10.905Z,4.10
2023-05-05T15:04:38.494Z,5.80
2023-05-05T15:07:08.624Z,4.28
2023-05-05T15:09:35.329Z,6.15
2023-05-05T15:12:02.721Z,4.82
2023-05-05T15:14:29.932Z,3.03
2023-05-05T15:16:57.310Z,3.42
2023-05-05T15:22:10.861Z,4.28
2023-05-05T15:24:39.942Z,4.38
2023-05-05T15:27:07.355Z,4.15
2023-05-05T15:29:34.686Z,3.38
2023-05-05T15:32:01.830Z,3.58
2023-05-05T15:34:28.995Z,4.38
2023-05-05T15:36:56.130Z,3.67
2023-05-05T15:39:23.229Z,2.28
2023-05-05T15:41:50.548Z,3.42
2023-05-05T15:44:17.790Z,5.43
2023-05-05T15:46:44.981Z,4.15
2023-05-05T15:49:12.314Z,5.10
2023-05-05T15:51:41.666Z,3.58
2023-05-05T15:54:08.475Z,3.13
2023-05-05T15:56:35.661Z,3.00
2023-05-05T15:59:03.478Z,3.35
2023-05-05T16:01:30.811Z,5.38
2023-05-05T16:03:59.909Z,3.40
2023-05-05T16:06:27.292Z,2.13
2023-05-05T16:08:56.052Z,3.13
2023-05-05T16:11:24.051Z,3.38
2023-05-05T16:13:51.456Z,5.03
2023-05-05T16:16:19.206Z,4.65
2023-05-05T16:18:46.735Z,3.25
2023-05-05T16:21:13.506Z,3.30
2023-05-05T16:23:40.696Z,3.85
2023-05-05T16:26:07.837Z,4.70
2023-05-05T16:28:34.698Z,5.18
2023-05-05T16:31:02.435Z,3.70
2023-05-05T16:33:32.074Z,2.92
2023-05-05T16:35:59.283Z,3.75
2023-05-05T16:38:26.418Z,2.63
2023-05-05T16:40:53.613Z,2.45
2023-05-05T16:43:20.754Z,4.20
2023-05-05T16:45:47.980Z,2.38
2023-05-05T16:48:14.832Z,6.05
2023-05-05T16:50:43.139Z,3.78
2023-05-05T16:53:10.598Z,4.75
2023-05-05T16:55:37.852Z,3.70
2023-05-05T16:58:05.109Z,2.30
2023-05-05T17:00:32.261Z,3.78
2023-05-05T17:02:59.433Z,4.55
2023-05-05T17:05:29.162Z,4.78
2023-05-05T17:07:55.909Z,5.95
2023-05-05T17:10:23.140Z,4.90
2023-05-05T17:12:52.600Z,6.32
2023-05-05T17:15:21.829Z,6.20
2023-05-05T17:17:48.636Z,4.88
2023-05-05T17:20:16.191Z,7.22
2023-05-05T17:22:43.379Z,6.57
2023-05-05T17:25:11.052Z,6.30
2023-05-05T17:27:40.562Z,6.40
2023-05-05T17:30:08.017Z,5.63
2023-05-05T17:32:35.274Z,4.85
2023-05-05T17:35:02.843Z,6.07
2023-05-05T17:37:30.770Z,5.25
2023-05-05T17:39:58.120Z,6.35
2023-05-05T17:42:26.948Z,5.50
2023-05-05T17:44:53.641Z,6.10
2023-05-05T17:47:24.886Z,4.03
2023-05-05T17:49:56.265Z,4.18
2023-05-05T17:52:29.831Z,4.25
2023-05-05T17:54:58.115Z,5.40
2023-05-05T17:57:25.467Z,4.30
2023-05-05T17:59:53.618Z,4.38
2023-05-05T18:02:21.187Z,3.63
2023-05-05T18:04:48.427Z,5.75
2023-05-05T18:07:15.775Z,6.13
2023-05-05T18:09:43.803Z,5.03
2023-05-05T18:12:11.151Z,3.92
2023-05-05T18:14:38.572Z,5.07
2023-05-05T18:17:05.652Z,4.40
2023-05-05T18:19:32.886Z,5.53
2023-05-05T18:22:00.297Z,3.60
2023-05-05T18:24:28.077Z,7.00
2023-05-05T18:26:55.460Z,6.70
2023-05-05T18:29:22.853Z,5.43
2023-05-05T18:31:53.207Z,3.90
2023-05-05T18:34:20.714Z,5.05
2023-05-05T18:36:48.054Z,4.97
2023-05-05T18:39:15.292Z,4.82
2023-05-05T18:41:42.480Z,5.47
2023-05-05T18:44:10.935Z,6.03
2023-05-05T18:46:40.496Z,5.43
2023-05-05T18:49:07.336Z,4.30
2023-05-05T18:51:34.581Z,4.95
2023-05-05T18:54:01.787Z,5.63
2023-05-05T18:56:29.416Z,7.47
2023-05-05T18:58:59.835Z,6.10
2023-05-05T19:01:27.428Z,6.13
2023-05-05T19:04:01.973Z,4.68
2023-05-05T19:06:29.244Z,6.15
2023-05-05T19:08:56.807Z,6.82
2023-05-05T19:11:24.386Z,6.35
2023-05-05T19:13:52.033Z,6.38
2023-05-05T19:16:19.354Z,8.00
2023-05-05T19:18:46.824Z,6.30
2023-05-05T19:21:21.588Z,5.95
2023-05-05T19:23:48.432Z,6.18
2023-05-05T19:26:16.460Z,6.57
2023-05-05T19:28:44.016Z,7.85
2023-05-05T19:31:11.506Z,7.25
2023-05-05T19:33:42.253Z,5.95
2023-05-05T19:36:09.605Z,7.50
2023-05-05T19:38:36.916Z,6.68
2023-05-05T19:41:03.925Z,5.85
2023-05-05T19:43:31.350Z,5.65
2023-05-05T19:46:00.540Z,5.20
2023-05-05T19:48:28.566Z,7.45
2023-05-05T19:50:56.297Z,7.43
2023-05-05T19:53:25.187Z,6.97
2023-05-05T19:55:54.124Z,6.85
2023-05-05T19:58:21.713Z,5.95
2023-05-05T20:00:51.633Z,7.95
2023-05-05T20:03:19.458Z,7.50
2023-05-05T20:05:56.892Z,5.97
2023-05-05T20:08:24.135Z,6.93
2023-05-05T20:10:51.524Z,11.05
2023-05-05T20:13:18.833Z,17.48
2023-05-05T20:15:48.634Z,8.07
2023-05-05T20:18:16.069Z,8.38
2023-05-05T20:20:44.335Z,7.90
2023-05-05T20:26:04.001Z,7.97
2023-05-05T20:28:33.783Z,6.75
2023-05-05T20:31:01.274Z,10.02
2023-05-05T20:33:30.634Z,8.35
2023-05-05T20:35:57.760Z,8.07
2023-05-05T20:38:24.769Z,10.30
2023-05-05T20:40:52.432Z,10.70
2023-05-05T20:43:19.938Z,9.05
2023-05-05T20:45:47.139Z,8.50
2023-05-05T20:48:14.242Z,8.57
2023-05-05T20:50:41.914Z,10.93
2023-05-05T20:53:09.495Z,11.25
2023-05-05T20:55:36.673Z,11.43
2023-05-05T20:58:05.452Z,11.00
2023-05-05T21:00:32.382Z,10.88
2023-05-05T21:02:59.841Z,12.00
2023-05-05T21:05:26.960Z,11.57
2023-05-05T21:07:54.647Z,10.10
2023-05-05T21:10:21.928Z,10.75
2023-05-05T21:12:50.459Z,9.65
2023-05-05T21:15:17.713Z,15.50
2023-05-05T21:17:44.895Z,10.63
2023-05-05T21:20:14.523Z,12.75
2023-05-05T21:22:43.918Z,11.82
2023-05-05T21:25:17.652Z,11.90
2023-05-05T21:27:48.416Z,10.55
2023-05-05T21:30:16.604Z,12.57
2023-05-05T21:32:44.275Z,12.25
2023-05-05T21:35:11.465Z,10.38
2023-05-05T21:37:39.117Z,12.70
2023-05-05T21:40:13.346Z,11.32
2023-05-05T21:42:41.384Z,11.65
2023-05-05T21:45:09.254Z,12.75
2023-05-05T21:47:38.059Z,12.23
2023-05-05T21:50:05.496Z,11.45
2023-05-05T21:55:16.853Z,12.48
2023-05-05T21:57:44.630Z,13.05
2023-05-05T22:00:16.655Z,13.70
2023-05-05T22:02:52.805Z,12.15
2023-05-05T22:05:20.210Z,12.95
2023-05-05T22:07:47.555Z,11.75
2023-05-05T22:10:14.698Z,12.43
2023-05-05T22:12:42.645Z,11.82
2023-05-05T22:15:10.375Z,14.50
2023-05-05T22:17:37.849Z,13.55
2023-05-05T22:20:05.469Z,16.63
2023-05-05T22:22:33.520Z,13.80
2023-05-05T22:25:00.820Z,14.27
2023-05-05T22:27:28.640Z,12.93
2023-05-05T22:29:55.969Z,16.05
2023-05-05T22:32:23.212Z,13.38
2023-05-05T22:34:51.434Z,12.98
2023-05-05T22:37:18.623Z,13.50
2023-05-05T22:39:45.701Z,14.63
2023-05-05T22:42:13.568Z,12.60
2023-05-05T22:44:40.783Z,14.98
2023-05-05T22:47:09.002Z,13.98
2023-05-05T22:49:36.454Z,12.75
2023-05-05T22:52:06.285Z,15.07
2023-05-05T22:54:33.414Z,15.00
2023-05-05T22:57:00.556Z,12.88
2023-05-05T22:59:30.488Z,15.32
2023-05-05T23:01:57.649Z,16.23
2023-05-05T23:04:24.846Z,15.80
2023-05-05T23:06:51.969Z,16.05
2023-05-05T23:09:19.198Z,13.80
2023-05-05T23:11:46.336Z,16.35
2023-05-05T23:14:13.481Z,16.15
2023-05-05T23:16:40.812Z,19.13
2023-05-05T23:19:08.190Z,16.50
2023-05-05T23:21:45.325Z,18.75
2023-05-05T23:24:19.555Z,15.95
2023-05-05T23:26:46.677Z,21.27
2023-05-05T23:29:13.805Z,16.77
2023-05-05T23:31:40.901Z,21.83
2023-05-05T23:34:08.323Z,20.35
2023-05-05T23:36:35.409Z,18.05
2023-05-05T23:39:02.831Z,19.23
2023-05-05T23:41:32.684Z,19.27
2023-05-05T23:43:59.848Z,18.83
2023-05-05T23:46:28.080Z,20.42
2023-05-05T23:48:55.481Z,19.70
2023-05-05T23:51:22.700Z,19.67
2023-05-05T23:53:52.066Z,19.05
2023-05-05T23:56:19.255Z,20.00
2023-05-05T23:58:46.457Z,19.65
